Time;durP1;ratioP1;P1;durP2;ratioP2;P2;SDS_P1;SDS_P2;PMS_P1;PMS_P2;Temp;Humidity;BMP_temperature;BMP_pressure;BME280_temperature;BME280_humidity;BME280_pressure;Samples;Min_cycle;Max_cycle;Signal;HPM_P1;HPM_P2
2023/12/29 00:01:15;;;;;;;39.45;24.98;;;;;;;3.87;59.73;95635.41;5087905;28;20054;-79
2023/12/29 00:03:40;;;;;;;35.03;24.65;;;;;;;3.83;59.67;95634.59;5089220;28;20020;-79
2023/12/29 00:06:06;;;;;;;38.75;22.73;;;;;;;3.78;59.78;95631.44;5088978;28;20031;-80
2023/12/29 00:08:31;;;;;;;43.65;24.05;;;;;;;3.75;60.08;95624.03;5089167;28;20047;-78
2023/12/29 00:10:57;;;;;;;32.72;21.42;;;;;;;3.75;60.10;95630.25;5088853;28;20077;-79
2023/12/29 00:13:23;;;;;;;36.58;21.75;;;;;;;3.73;59.72;95619.00;5089209;28;20027;-78
2023/12/29 00:15:52;;;;;;;32.28;21.13;;;;;;;3.68;59.79;95619.34;5086561;28;20060;-78
2023/12/29 00:18:18;;;;;;;35.00;20.15;;;;;;;3.66;59.51;95624.34;5089239;28;20051;-78
2023/12/29 00:20:44;;;;;;;32.72;21.25;;;;;;;3.66;59.53;95624.34;5088385;28;20650;-78
2023/12/29 00:23:09;;;;;;;33.72;20.50;;;;;;;3.58;60.24;95628.16;5088664;28;20161;-79
2023/12/29 00:25:38;;;;;;;31.85;21.25;;;;;;;3.58;60.31;95630.88;5089097;28;20440;-78
2023/12/29 00:28:04;;;;;;;37.03;20.45;;;;;;;3.61;59.86;95621.97;5088308;28;20410;-78
2023/12/29 00:30:29;;;;;;;32.28;21.00;;;;;;;3.58;60.26;95628.16;5088883;28;20422;-79
2023/12/29 00:32:58;;;;;;;36.65;21.17;;;;;;;3.49;60.24;95612.16;5088206;28;20085;-77
2023/12/29 00:35:23;;;;;;;34.13;19.98;;;;;;;3.54;59.77;95605.59;5088759;28;20517;-78
2023/12/29 00:37:50;;;;;;;31.83;20.98;;;;;;;3.49;59.84;95614.09;5088175;28;20024;-78
2023/12/29 00:40:16;;;;;;;31.73;20.77;;;;;;;3.38;60.55;95608.56;5088496;28;20494;-78
2023/12/29 00:42:41;;;;;;;36.50;21.27;;;;;;;3.45;60.63;95617.56;5088452;28;20047;-79
2023/12/29 00:45:07;;;;;;;31.05;20.55;;;;;;;3.33;60.79;95619.78;5086740;28;20035;-79
2023/12/29 00:47:32;;;;;;;30.55;20.67;;;;;;;3.34;60.98;95629.50;5088718;28;20168;-78
2023/12/29 00:49:58;;;;;;;31.63;20.13;;;;;;;3.26;60.91;95625.91;5087922;28;20043;-78
2023/12/29 00:52:23;;;;;;;32.70;20.08;;;;;;;3.26;60.57;95619.69;5088437;28;20479;-78
2023/12/29 00:54:48;;;;;;;36.90;21.13;;;;;;;3.27;60.77;95624.78;5087947;28;20076;-79
2023/12/29 00:57:14;;;;;;;43.78;22.52;;;;;;;3.30;60.66;95613.16;5088265;28;20070;-79
2023/12/29 00:59:43;;;;;;;34.65;22.48;;;;;;;3.25;60.78;95613.47;5088146;28;20020;-79
2023/12/29 01:02:09;;;;;;;43.60;26.35;;;;;;;3.15;61.59;95601.38;5086604;28;20039;-78
2023/12/29 01:04:37;;;;;;;55.13;32.50;;;;;;;3.20;61.71;95606.44;5088365;28;20501;-78
2023/12/29 01:07:03;;;;;;;57.38;33.25;;;;;;;3.24;62.35;95614.63;5087727;28;20044;-79
2023/12/29 01:09:28;;;;;;;36.42;22.77;;;;;;;3.23;61.34;95610.38;5087892;28;20067;-79
2023/12/29 01:11:53;;;;;;;33.10;22.40;;;;;;;3.26;60.61;95617.75;5087100;28;20407;-79
2023/12/29 01:14:19;;;;;;;36.47;22.95;;;;;;;3.22;60.45;95616.97;5087809;28;20128;-79
2023/12/29 01:16:44;;;;;;;38.92;22.85;;;;;;;3.20;60.70;95620.03;5087329;28;20024;-78
2023/12/29 01:19:10;;;;;;;42.15;23.98;;;;;;;3.20;60.78;95622.75;5087491;28;20048;-78
2023/12/29 01:21:37;;;;;;;37.80;22.35;;;;;;;3.17;60.88;95620.00;5087837;28;20111;-79
2023/12/29 01:24:07;;;;;;;46.50;27.63;;;;;;;3.13;62.12;95611.03;5087349;28;20035;-79
2023/12/29 01:26:37;;;;;;;46.85;27.27;;;;;;;3.13;63.29;95611.81;5087711;28;20073;-78
2023/12/29 01:29:02;;;;;;;47.00;28.17;;;;;;;3.11;63.42;95611.41;5087456;28;20031;-79
2023/12/29 01:31:30;;;;;;;36.13;22.65;;;;;;;3.17;62.23;95615.34;5087597;28;20383;-79
2023/12/29 01:33:56;;;;;;;32.95;21.45;;;;;;;3.14;61.40;95618.81;5087012;28;20051;-78
2023/12/29 01:36:21;;;;;;;36.00;22.67;;;;;;;3.13;61.08;95622.69;5087212;28;20546;-79
2023/12/29 01:38:47;;;;;;;36.13;21.52;;;;;;;3.07;61.45;95624.16;5087542;28;20039;-79
2023/12/29 01:41:13;;;;;;;33.70;21.75;;;;;;;3.15;61.33;95622.28;5087155;28;20032;-78
2023/12/29 01:44:01;;;;;;;31.60;21.65;;;;;;;3.14;61.61;95620.75;5087362;28;20035;-78
2023/12/29 01:46:31;;;;;;;39.13;23.88;;;;;;;3.06;62.07;95610.97;5080297;28;20502;-79
2023/12/29 01:48:57;;;;;;;37.28;23.17;;;;;;;2.85;62.60;95590.53;5087057;28;20127;-78
2023/12/29 01:51:25;;;;;;;37.13;22.20;;;;;;;3.04;62.85;95614.06;5087280;28;20067;-79
2023/12/29 01:53:52;;;;;;;33.58;21.23;;;;;;;2.96;62.43;95596.09;5085516;28;20058;-79
2023/12/29 01:56:17;;;;;;;35.20;22.08;;;;;;;3.00;62.59;95596.94;5086148;28;20040;-79
2023/12/29 01:58:43;;;;;;;26.00;17.15;;;;;;;2.96;63.71;95603.47;5086581;28;20038;-79
2023/12/29 02:01:09;;;;;;;22.88;16.15;;;;;;;2.98;63.91;95598.44;5085966;28;20038;-80
2023/12/29 02:03:35;;;;;;;23.77;14.70;;;;;;;2.90;65.00;95590.22;5086587;28;20024;-79
2023/12/29 02:06:01;;;;;;;25.58;16.23;;;;;;;2.75;65.94;95593.13;5087552;28;20547;-80
2023/12/29 02:08:26;;;;;;;29.08;16.50;;;;;;;2.76;65.71;95584.66;5086097;28;20032;-79
2023/12/29 02:10:52;;;;;;;27.38;17.30;;;;;;;2.82;65.14;95591.31;5088044;28;20406;-79
2023/12/29 02:13:17;;;;;;;30.85;17.17;;;;;;;2.86;64.82;95585.91;5088298;28;20031;-80
2023/12/29 02:15:43;;;;;;;27.83;17.02;;;;;;;2.88;64.62;95580.91;5084729;28;20050;-79
2023/12/29 02:18:14;;;;;;;30.45;18.00;;;;;;;2.90;64.52;95570.44;5087277;28;20116;-79
2023/12/29 02:20:41;;;;;;;37.33;22.98;;;;;;;2.90;63.78;95560.34;5083546;28;20408;-80
2023/12/29 02:23:06;;;;;;;37.03;22.73;;;;;;;2.97;63.26;95567.00;5086645;28;20028;-80
2023/12/29 02:25:32;;;;;;;43.08;24.38;;;;;;;2.96;63.15;95566.22;5086312;28;20075;-80
2023/12/29 02:28:14;;;;;;;41.85;24.08;;;;;;;2.96;62.81;95565.44;5085055;28;20036;-79
2023/12/29 02:30:46;;;;;;;41.40;24.45;;;;;;;2.95;62.47;95569.31;5102077;28;20028;-79
2023/12/29 02:33:16;;;;;;;42.35;25.13;;;;;;;2.93;62.25;95572.41;5067843;28;20058;-79
2023/12/29 02:35:43;;;;;;;44.03;25.13;;;;;;;2.90;62.17;95568.50;5086346;28;20028;-78
2023/12/29 02:38:10;;;;;;;43.00;24.92;;;;;;;2.83;62.72;95557.56;5084777;28;20040;-77
2023/12/29 02:40:36;;;;;;;38.47;24.35;;;;;;;2.83;62.69;95565.72;5084839;28;20099;-80
2023/12/29 02:43:02;;;;;;;38.40;21.95;;;;;;;2.79;62.37;95548.59;5084687;28;20116;-79
2023/12/29 02:45:27;;;;;;;37.35;21.52;;;;;;;2.77;62.11;95556.34;5084662;28;20115;-78
2023/12/29 02:47:53;;;;;;;35.97;24.75;;;;;;;2.71;62.85;95546.97;5086074;28;20097;-80
2023/12/29 02:50:18;;;;;;;50.13;29.58;;;;;;;2.82;63.10;95553.28;5085706;28;20031;-79
2023/12/29 02:52:44;;;;;;;44.95;27.38;;;;;;;2.79;63.25;95553.25;5086242;28;20024;-79
2023/12/29 02:55:09;;;;;;;40.80;24.77;;;;;;;2.73;62.68;95546.56;5085650;28;20027;-79
2023/12/29 02:57:34;;;;;;;37.55;21.23;;;;;;;2.71;62.25;95552.38;5086353;28;20031;-80
2023/12/29 03:00:00;;;;;;;32.67;20.95;;;;;;;2.72;62.07;95542.31;5084013;28;20024;-80
2023/12/29 03:02:25;;;;;;;36.33;24.13;;;;;;;2.67;62.39;95536.03;5085650;28;20028;-79
2023/12/29 03:04:51;;;;;;;39.92;25.15;;;;;;;2.71;62.45;95530.66;5085683;28;20154;-78
2023/12/29 03:07:16;;;;;;;49.05;29.48;;;;;;;2.61;62.97;95517.75;5085542;28;20016;-79
2023/12/29 03:09:42;;;;;;;46.75;28.85;;;;;;;2.58;63.46;95523.91;5084512;28;20024;-78
2023/12/29 03:12:07;;;;;;;48.78;28.45;;;;;;;2.58;63.36;95524.72;5085416;28;20077;-78
2023/12/29 03:14:32;;;;;;;42.00;26.05;;;;;;;2.62;63.10;95527.44;5085601;28;20047;-78
2023/12/29 03:16:58;;;;;;;47.88;27.13;;;;;;;2.57;62.72;95516.94;5085012;28;20249;-78
2023/12/29 03:19:24;;;;;;;52.80;30.50;;;;;;;2.59;63.06;95525.50;5084466;28;20028;-78
2023/12/29 03:21:49;;;;;;;47.60;27.15;;;;;;;2.52;62.80;95528.88;5085179;28;20478;-79
2023/12/29 03:24:14;;;;;;;43.78;25.10;;;;;;;2.52;62.42;95533.53;5085433;28;20142;-78
2023/12/29 03:26:40;;;;;;;49.60;28.63;;;;;;;2.53;62.53;95521.56;5085968;28;20035;-79
2023/12/29 03:29:06;;;;;;;45.90;27.98;;;;;;;2.48;63.14;95516.44;5085111;28;20130;-79
2023/12/29 03:31:31;;;;;;;43.78;27.00;;;;;;;2.46;63.13;95508.66;5087639;28;20118;-79
2023/12/29 03:33:57;;;;;;;47.10;29.42;;;;;;;2.42;63.44;95509.78;5087808;28;20028;-79
2023/12/29 03:36:22;;;;;;;55.13;31.30;;;;;;;2.47;64.28;95518.38;5090017;28;20111;-80
2023/12/29 03:38:47;;;;;;;48.13;29.27;;;;;;;2.47;64.93;95512.97;5089099;28;20448;-80
2023/12/29 03:41:13;;;;;;;50.85;30.88;;;;;;;2.38;65.10;95534.16;5089849;28;20126;-78
2023/12/29 03:43:39;;;;;;;41.22;24.75;;;;;;;2.34;64.46;95530.63;5088042;28;20495;-79
2023/12/29 03:46:16;;;;;;;30.30;22.60;;;;;;;2.36;63.46;95522.91;5089445;28;20032;-79
2023/12/29 03:48:41;;;;;;;35.88;21.33;;;;;;;2.40;63.13;95526.41;5089975;28;20113;-79
2023/12/29 03:51:07;;;;;;;37.00;23.17;;;;;;;2.35;63.42;95535.69;5089241;28;20471;-79
2023/12/29 03:53:32;;;;;;;34.78;22.17;;;;;;;2.34;63.29;95534.09;5088569;28;20052;-79
2023/12/29 03:55:57;;;;;;;31.02;21.17;;;;;;;2.31;63.30;95534.84;5088697;28;20470;-79
2023/12/29 03:58:23;;;;;;;38.17;22.73;;;;;;;2.27;63.33;95522.41;5089548;28;20407;-80
2023/12/29 04:00:48;;;;;;;37.17;22.45;;;;;;;2.36;63.16;95534.53;5087626;28;20032;-80
2023/12/29 04:03:14;;;;;;;35.75;22.90;;;;;;;2.37;63.05;95532.59;5089204;28;20028;-79
2023/12/29 04:05:39;;;;;;;38.35;23.40;;;;;;;2.31;63.10;95525.94;5089789;28;20051;-79
2023/12/29 04:08:05;;;;;;;43.47;22.98;;;;;;;2.30;62.99;95524.38;5089025;28;20500;-80
2023/12/29 04:10:30;;;;;;;39.95;22.70;;;;;;;2.32;62.61;95532.94;5089688;28;20205;-80
2023/12/29 04:12:55;;;;;;;37.65;23.48;;;;;;;2.31;62.60;95531.38;5088731;28;20550;-80
2023/12/29 04:15:21;;;;;;;42.35;24.58;;;;;;;2.28;62.43;95524.72;5087390;28;20047;-79
2023/12/29 04:17:46;;;;;;;35.65;24.27;;;;;;;2.31;62.64;95524.00;5088914;28;20024;-78
2023/12/29 04:20:12;;;;;;;50.53;29.50;;;;;;;2.26;62.40;95526.25;5088831;28;20031;-79
2023/12/29 04:22:37;;;;;;;57.42;35.58;;;;;;;2.15;62.13;95528.84;5089062;28;20089;-78
2023/12/29 04:25:03;;;;;;;61.47;34.45;;;;;;;2.17;62.76;95526.53;5088189;28;20494;-78
2023/12/29 04:27:28;;;;;;;57.88;32.85;;;;;;;2.13;62.91;95521.06;5088190;28;20513;-80
2023/12/29 04:29:53;;;;;;;57.45;32.53;;;;;;;2.11;62.98;95526.06;5088370;28;20111;-80
2023/12/29 04:32:19;;;;;;;54.08;31.30;;;;;;;2.05;62.77;95518.63;5089068;28;20024;-80
2023/12/29 04:34:44;;;;;;;47.28;27.85;;;;;;;2.02;62.39;95530.22;5086671;28;20464;-79
2023/12/29 04:37:09;;;;;;;42.67;26.88;;;;;;;2.01;62.12;95534.09;5088755;28;20028;-80
2023/12/29 04:39:35;;;;;;;49.08;26.77;;;;;;;1.95;61.91;95519.25;5088638;28;20042;-80
2023/12/29 04:42:00;;;;;;;46.15;28.45;;;;;;;2.03;61.80;95539.91;5088086;28;20517;-79
2023/12/29 04:44:26;;;;;;;47.80;30.30;;;;;;;1.96;61.88;95545.25;5088061;28;20024;-79
2023/12/29 04:46:51;;;;;;;51.83;29.85;;;;;;;1.90;62.55;95538.56;5088142;28;20486;-79
2023/12/29 04:49:16;;;;;;;48.00;29.38;;;;;;;1.91;62.24;95534.72;5088726;28;20027;-78
2023/12/29 04:51:42;;;;;;;46.45;29.23;;;;;;;1.84;62.08;95527.28;5088257;28;20166;-78
2023/12/29 04:54:07;;;;;;;52.08;30.20;;;;;;;1.88;61.71;95528.06;5088734;28;20467;-78
2023/12/29 04:56:33;;;;;;;46.92;28.13;;;;;;;1.80;61.84;95523.72;5087966;28;20350;-78
2023/12/29 04:59:00;;;;;;;41.72;26.95;;;;;;;1.75;62.13;95527.50;5087816;28;20031;-78
2023/12/29 05:01:25;;;;;;;49.33;28.45;;;;;;;1.66;62.13;95518.84;5088068;28;20039;-79
2023/12/29 05:03:50;;;;;;;46.08;28.30;;;;;;;1.68;61.91;95519.28;5087391;28;20024;-79
2023/12/29 05:06:16;;;;;;;43.88;28.67;;;;;;;1.67;61.85;95520.44;5087154;28;20107;-80
2023/12/29 05:08:41;;;;;;;45.05;28.48;;;;;;;1.69;61.59;95525.50;5087539;28;20024;-80
2023/12/29 05:11:06;;;;;;;48.38;29.80;;;;;;;1.70;61.69;95521.63;5088027;28;20024;-80
2023/12/29 05:13:32;;;;;;;46.20;29.23;;;;;;;1.61;61.80;95527.31;5087373;28;20475;-79
2023/12/29 05:15:57;;;;;;;46.83;32.78;;;;;;;1.56;61.83;95523.00;5087590;28;20056;-79
2023/12/29 05:18:22;;;;;;;53.35;35.63;;;;;;;1.59;61.78;95527.66;5087529;28;20032;-79
2023/12/29 05:20:48;;;;;;;68.13;43.67;;;;;;;1.51;61.86;95522.53;5087195;28;20034;-79
2023/12/29 05:23:13;;;;;;;96.75;63.90;;;;;;;1.52;61.73;95524.06;5087988;28;20494;-78
2023/12/29 05:25:39;;;;;;;102.78;68.60;;;;;;;1.47;61.99;95524.38;5087336;28;20032;-80
2023/12/29 05:28:04;;;;;;;101.00;67.70;;;;;;;1.44;61.72;95528.63;5087725;28;20067;-79
2023/12/29 05:30:31;;;;;;;92.95;60.10;;;;;;;1.43;61.78;95523.53;5086914;28;20036;-78
2023/12/29 05:32:57;;;;;;;87.70;53.88;;;;;;;1.41;61.69;95520.41;5087286;28;20023;-78
2023/12/29 05:35:22;;;;;;;82.32;51.17;;;;;;;1.41;61.83;95513.06;5087155;28;20024;-79
2023/12/29 05:37:47;;;;;;;75.05;50.55;;;;;;;1.38;61.88;95513.81;5087089;28;20447;-79
2023/12/29 05:40:13;;;;;;;66.80;45.83;;;;;;;1.40;61.86;95514.22;5087631;28;20053;-79
2023/12/29 05:42:38;;;;;;;71.40;47.35;;;;;;;1.37;62.12;95512.22;5086926;28;20031;-80
2023/12/29 05:45:04;;;;;;;65.25;42.20;;;;;;;1.38;61.78;95524.66;5087529;28;20024;-80
2023/12/29 05:47:29;;;;;;;63.25;42.15;;;;;;;1.34;62.00;95526.50;5086709;28;20107;-80
2023/12/29 05:49:55;;;;;;;66.30;41.60;;;;;;;1.30;62.15;95512.91;5087179;28;20048;-80
2023/12/29 05:52:21;;;;;;;66.15;43.03;;;;;;;1.26;61.98;95503.97;5086494;28;20565;-80
2023/12/29 05:54:46;;;;;;;63.17;44.17;;;;;;;1.32;62.32;95509.84;5086740;28;20024;-80
2023/12/29 05:57:12;;;;;;;63.45;44.35;;;;;;;1.24;62.90;95514.34;5086754;28;20080;-81
2023/12/29 05:59:37;;;;;;;65.28;44.22;;;;;;;1.26;62.75;95520.22;5085570;28;20032;-81
2023/12/29 06:02:03;;;;;;;61.83;43.00;;;;;;;1.19;62.46;95503.81;5086469;28;20043;-81
2023/12/29 06:04:28;;;;;;;65.25;44.35;;;;;;;1.23;62.53;95514.72;5085232;28;20031;-80
2023/12/29 06:06:54;;;;;;;63.35;43.28;;;;;;;1.22;62.61;95505.81;5087080;28;20107;-80
2023/12/29 06:09:19;;;;;;;66.78;42.42;;;;;;;1.21;62.39;95514.31;5086297;28;20450;-80
2023/12/29 06:11:45;;;;;;;61.55;42.45;;;;;;;1.25;62.30;95515.13;5087028;28;20406;-80
2023/12/29 06:14:10;;;;;;;64.03;41.22;;;;;;;1.22;62.31;95505.81;5086304;28;20515;-80
2023/12/29 06:16:36;;;;;;;69.82;43.33;;;;;;;1.28;62.00;95517.13;5086507;28;20565;-80
2023/12/29 06:19:01;;;;;;;64.35;43.00;;;;;;;1.25;61.97;95518.63;5086363;28;20016;-80
2023/12/29 06:21:27;;;;;;;62.08;43.10;;;;;;;1.23;61.94;95526.34;5084460;28;20113;-80
2023/12/29 06:23:52;;;;;;;61.67;43.28;;;;;;;1.25;61.72;95529.47;5086454;28;20024;-80
2023/12/29 06:26:22;;;;;;;64.85;41.72;;;;;;;1.24;61.91;95525.19;5086194;28;20024;-80
2023/12/29 06:28:48;;;;;;;68.50;42.92;;;;;;;1.26;61.69;95527.53;5086453;28;20129;-79
2023/12/29 06:31:14;;;;;;;61.35;38.42;;;;;;;1.24;61.50;95533.31;5084683;28;20118;-80
2023/12/29 06:33:43;;;;;;;60.10;39.70;;;;;;;1.26;61.18;95532.94;5086427;28;20024;-80
2023/12/29 06:36:09;;;;;;;66.53;38.28;;;;;;;1.19;61.00;95509.25;5086663;28;20059;-79
2023/12/29 06:38:34;;;;;;;68.82;39.05;;;;;;;1.32;60.81;95518.75;5084726;28;20482;-79
2023/12/29 06:41:02;;;;;;;64.45;39.92;;;;;;;1.39;60.82;95528.13;5084873;28;20035;-78
2023/12/29 06:43:27;;;;;;;61.45;38.00;;;;;;;1.37;60.78;95522.28;5085843;28;20043;-76
2023/12/29 06:45:53;;;;;;;65.57;40.75;;;;;;;1.39;61.19;95525.44;5086361;28;20063;-77
2023/12/29 06:48:18;;;;;;;59.22;36.85;;;;;;;1.43;61.25;95532.44;5085675;28;20031;-76
2023/12/29 06:50:44;;;;;;;62.80;37.25;;;;;;;1.47;61.53;95519.75;5086071;28;20032;-77
2023/12/29 06:53:12;;;;;;;66.30;38.35;;;;;;;1.51;61.36;95530.66;5085563;28;20032;-77
2023/12/29 06:55:37;;;;;;;61.35;37.97;;;;;;;1.47;61.31;95524.38;5085857;28;20138;-77
2023/12/29 06:58:04;;;;;;;63.38;39.40;;;;;;;1.50;61.24;95526.38;5086264;28;20055;-78
2023/12/29 07:00:29;;;;;;;66.78;40.03;;;;;;;1.56;61.16;95531.13;5085372;28;20035;-76
2023/12/29 07:02:55;;;;;;;69.90;43.67;;;;;;;1.55;61.59;95524.13;5086165;28;20028;-79
2023/12/29 07:05:20;;;;;;;76.53;43.42;;;;;;;1.64;61.47;95523.09;5084293;28;20028;-79
2023/12/29 07:07:46;;;;;;;75.03;43.55;;;;;;;1.73;61.44;95527.13;5086060;28;20501;-78
2023/12/29 07:10:14;;;;;;;72.78;44.47;;;;;;;1.78;61.23;95532.22;5085482;28;20035;-77
2023/12/29 07:12:43;;;;;;;73.82;45.47;;;;;;;1.83;61.18;95531.09;5086295;28;20028;-77
2023/12/29 07:15:08;;;;;;;87.90;48.25;;;;;;;1.86;61.19;95525.75;5085588;28;20048;-77
2023/12/29 07:17:34;;;;;;;78.05;46.47;;;;;;;1.93;61.13;95522.34;5085712;28;20035;-78
2023/12/29 07:20:00;;;;;;;90.40;48.28;;;;;;;2.04;60.79;95531.41;5084481;28;20028;-78
2023/12/29 07:22:26;;;;;;;115.90;56.70;;;;;;;2.07;60.59;95524.47;5085266;28;20687;-77
2023/12/29 07:24:51;;;;;;;75.53;43.08;;;;;;;1.99;61.20;95492.97;5084248;28;20020;-77
2023/12/29 07:27:16;;;;;;;71.43;42.42;;;;;;;2.20;61.68;95503.31;5085209;28;20024;-77
2023/12/29 07:29:42;;;;;;;56.83;35.63;;;;;;;2.26;62.63;95501.84;5085583;28;20034;-77
2023/12/29 07:32:08;;;;;;;68.95;38.13;;;;;;;2.31;62.80;95507.72;5083345;28;20111;-81
2023/12/29 07:34:33;;;;;;;71.28;42.15;;;;;;;2.45;61.96;95512.53;5066860;28;20115;-83
2023/12/29 07:36:59;;;;;;;70.28;43.90;;;;;;;2.53;61.32;95503.34;5083939;28;20081;-78
2023/12/29 07:39:25;;;;;;;71.22;43.60;;;;;;;2.72;60.78;95507.00;5085321;28;20513;-79
2023/12/29 07:41:51;;;;;;;81.22;46.60;;;;;;;2.92;60.18;95516.50;5084597;28;20040;-77
2023/12/29 07:44:17;;;;;;;74.85;46.58;;;;;;;3.06;59.73;95516.66;5083799;28;20107;-80
2023/12/29 07:46:42;;;;;;;72.35;42.35;;;;;;;3.42;58.73;95519.69;5084495;28;20024;-79
2023/12/29 07:49:08;;;;;;;68.43;40.85;;;;;;;3.70;57.99;95522.59;5085186;28;20031;-79
2023/12/29 07:51:33;;;;;;;59.90;36.10;;;;;;;4.06;56.66;95528.25;5083995;28;20031;-78
2023/12/29 07:53:59;;;;;;;48.80;29.60;;;;;;;4.39;55.80;95534.66;5083924;28;20164;-80
2023/12/29 07:56:24;;;;;;;41.97;25.67;;;;;;;4.82;54.63;95527.44;5085427;28;20339;-79
2023/12/29 07:58:50;;;;;;;38.05;22.27;;;;;;;5.54;52.99;95522.84;5085515;28;20043;-78
2023/12/29 08:01:15;;;;;;;41.83;24.95;;;;;;;6.92;49.23;95532.66;5085145;28;20394;-77
2023/12/29 08:03:41;;;;;;;39.47;23.40;;;;;;;8.23;46.08;95532.81;5085756;28;20028;-79
2023/12/29 08:06:06;;;;;;;41.10;23.98;;;;;;;9.30;43.17;95536.25;5084746;28;20078;-79
2023/12/29 08:08:31;;;;;;;39.38;23.83;;;;;;;10.31;41.10;95536.22;5085508;28;20099;-79
2023/12/29 08:10:57;;;;;;;37.00;23.88;;;;;;;11.15;38.94;95535.72;5084645;28;20035;-79
2023/12/29 08:13:22;;;;;;;40.55;23.85;;;;;;;11.84;37.56;95535.00;5085214;28;20024;-79
2023/12/29 08:15:48;;;;;;;38.45;24.48;;;;;;;12.48;36.33;95525.09;5085122;28;20051;-78
2023/12/29 08:18:13;;;;;;;37.45;24.35;;;;;;;13.11;34.91;95529.25;5086051;28;20052;-77
2023/12/29 08:20:38;;;;;;;36.30;24.67;;;;;;;13.89;33.85;95534.41;5071161;28;20107;-77
2023/12/29 08:23:04;;;;;;;39.50;24.83;;;;;;;14.52;32.37;95536.28;5088456;28;20032;-79
2023/12/29 08:25:29;;;;;;;43.22;26.75;;;;;;;15.05;31.51;95533.59;5089316;28;20151;-79
2023/12/29 08:27:56;;;;;;;39.15;27.98;;;;;;;15.52;30.48;95533.38;5086913;28;20039;-78
2023/12/29 08:30:21;;;;;;;38.47;28.25;;;;;;;15.97;29.99;95531.28;5087370;28;20032;-79
2023/12/29 08:32:47;;;;;;;42.83;28.88;;;;;;;16.45;28.97;95535.22;5088485;28;20587;-79
2023/12/29 08:35:12;;;;;;;37.30;26.77;;;;;;;16.70;28.50;95531.41;5088440;28;20085;-79
2023/12/29 08:37:37;;;;;;;36.42;27.70;;;;;;;17.39;27.31;95535.50;5087823;28;20020;-79
2023/12/29 08:40:03;;;;;;;36.60;26.52;;;;;;;17.90;26.58;95523.63;5087972;28;20494;-79
2023/12/29 08:42:29;;;;;;;36.05;26.58;;;;;;;18.45;26.06;95532.41;5089059;28;20483;-78
2023/12/29 08:44:54;;;;;;;41.40;29.42;;;;;;;18.96;25.39;95530.66;5088134;28;20024;-78
2023/12/29 08:47:20;;;;;;;38.42;28.85;;;;;;;19.29;25.10;95520.13;5087162;28;20161;-78
2023/12/29 08:49:46;;;;;;;40.92;30.38;;;;;;;19.79;24.13;95531.38;5088330;28;20024;-78
2023/12/29 08:52:12;;;;;;;40.70;29.33;;;;;;;20.34;23.56;95533.44;5088003;28;20410;-77
2023/12/29 08:54:37;;;;;;;40.38;31.05;;;;;;;20.81;23.10;95531.50;5088306;28;20493;-78
2023/12/29 08:57:03;;;;;;;40.05;30.58;;;;;;;21.05;23.01;95538.91;5087808;28;20427;-77
2023/12/29 08:59:29;;;;;;;41.00;30.30;;;;;;;21.52;22.43;95539.66;5087126;28;20039;-77
2023/12/29 09:01:55;;;;;;;40.25;31.38;;;;;;;22.05;21.93;95541.09;5087260;28;20028;-81
2023/12/29 09:04:20;;;;;;;37.72;30.65;;;;;;;22.48;21.55;95537.09;5087674;28;20032;-78
2023/12/29 09:06:46;;;;;;;38.65;30.35;;;;;;;22.91;21.17;95539.09;5086802;28;20020;-79
2023/12/29 09:09:12;;;;;;;36.40;30.92;;;;;;;23.31;20.83;95540.72;5087960;28;20020;-78
2023/12/29 09:11:39;;;;;;;44.00;33.40;;;;;;;23.63;20.30;95524.50;5087755;28;20059;-78
2023/12/29 09:14:05;;;;;;;41.40;34.08;;;;;;;24.14;19.92;95522.41;5087495;28;20047;-79
2023/12/29 09:16:30;;;;;;;44.45;34.95;;;;;;;24.64;19.40;95525.13;5086784;28;20032;-79
2023/12/29 09:18:55;;;;;;;44.38;33.80;;;;;;;25.13;19.03;95519.09;5087309;28;20020;-79
2023/12/29 09:21:21;;;;;;;43.47;34.78;;;;;;;25.46;18.76;95517.34;5088376;28;20493;-79
2023/12/29 09:23:47;;;;;;;41.30;34.10;;;;;;;25.82;18.46;95515.31;5087446;28;20020;-77
2023/12/29 09:26:12;;;;;;;40.08;32.95;;;;;;;26.31;18.09;95492.84;5087869;28;20028;-78
2023/12/29 09:28:42;;;;;;;39.28;33.60;;;;;;;26.84;17.71;95501.72;5087051;28;20090;-77
2023/12/29 09:31:08;;;;;;;42.42;33.60;;;;;;;26.99;17.69;95493.59;5087304;28;20055;-80
2023/12/29 09:33:33;;;;;;;39.33;32.15;;;;;;;27.12;17.22;95501.41;5087710;28;20376;-77
2023/12/29 09:35:58;;;;;;;39.33;34.45;;;;;;;27.20;17.39;95502.34;5087122;28;20167;-77
2023/12/29 09:38:24;;;;;;;43.67;35.38;;;;;;;27.48;17.49;95496.28;5087840;28;20522;-77
2023/12/29 09:40:51;;;;;;;44.28;35.17;;;;;;;27.60;17.40;95506.13;5086963;28;20104;-77
2023/12/29 09:43:16;;;;;;;45.50;34.80;;;;;;;27.67;17.24;95499.84;5087503;28;20115;-78
2023/12/29 09:45:42;;;;;;;41.72;36.63;;;;;;;27.69;17.39;95496.47;5086955;28;20334;-77
2023/12/29 09:48:09;;;;;;;45.90;39.28;;;;;;;27.86;17.17;95493.41;5085818;28;20039;-77
2023/12/29 09:50:35;;;;;;;56.90;43.97;;;;;;;27.96;17.21;95486.03;5085790;28;20016;-77
2023/12/29 09:53:02;;;;;;;47.08;41.70;;;;;;;28.12;16.79;95481.41;5085432;28;20070;-78
2023/12/29 09:55:28;;;;;;;56.33;44.72;;;;;;;28.17;16.76;95484.13;5087324;28;20043;-79
2023/12/29 09:57:54;;;;;;;50.40;44.00;;;;;;;28.12;16.90;95475.75;5085406;28;20450;-78
2023/12/29 10:00:20;;;;;;;50.35;40.88;;;;;;;28.37;16.72;95473.53;5087084;28;20107;-79
2023/12/29 10:02:46;;;;;;;48.95;40.13;;;;;;;28.45;16.69;95472.34;5085137;28;20161;-78
2023/12/29 10:05:11;;;;;;;55.80;41.75;;;;;;;28.48;16.42;95464.81;5085933;28;20035;-78
2023/12/29 10:07:38;;;;;;;46.35;37.17;;;;;;;28.38;16.46;95463.72;5086617;28;20020;-78
2023/12/29 10:10:04;;;;;;;41.97;35.53;;;;;;;28.48;16.71;95462.75;5085103;28;20023;-77
2023/12/29 10:12:31;;;;;;;43.13;35.08;;;;;;;28.54;16.88;95454.16;5085723;28;20078;-78
2023/12/29 10:15:20;;;;;;;44.63;36.40;;;;;;;28.55;16.71;95453.59;5084530;28;20044;-77
2023/12/29 10:18:07;;;;;;;41.45;34.80;;;;;;;28.78;16.44;95445.44;5087129;28;20068;-77
2023/12/29 10:21:05;;;;;;;44.95;34.75;;;;;;;28.60;16.55;95434.25;5084918;28;20032;-77
2023/12/29 10:23:54;;;;;;;42.47;35.38;;;;;;;28.35;16.85;95439.38;5086538;28;20031;-79
2023/12/29 10:26:19;;;;;;;42.47;34.35;;;;;;;28.43;16.77;95429.69;5086839;28;20034;-78
2023/12/29 10:28:47;;;;;;;40.67;35.13;;;;;;;28.31;16.73;95419.88;5085043;28;20094;-78
2023/12/29 10:31:15;;;;;;;41.22;33.08;;;;;;;28.15;16.93;95420.97;5084938;28;20036;-78
2023/12/29 10:33:40;;;;;;;47.22;33.75;;;;;;;28.08;16.94;95413.91;5086743;28;20024;-77
2023/12/29 10:36:07;;;;;;;39.45;33.28;;;;;;;28.06;16.96;95408.03;5086334;28;20028;-77
2023/12/29 10:38:33;;;;;;;39.92;33.22;;;;;;;28.52;16.62;95403.06;5086621;28;20078;-77
2023/12/29 10:41:16;;;;;;;43.80;34.25;;;;;;;28.81;16.25;95406.81;5083693;28;20051;-77
2023/12/29 10:43:42;;;;;;;;;;;;;;;28.56;16.51;95401.44;5087468;28;20032;-77
2023/12/29 10:46:09;;;;;;;47.65;35.80;;;;;;;28.87;16.38;95390.47;5084284;28;19939;-78
2023/12/29 10:48:34;;;;;;;40.33;33.40;;;;;;;29.12;16.14;95387.38;5086333;28;20023;-77
2023/12/29 10:51:03;;;;;;;40.92;33.30;;;;;;;29.04;16.16;95381.63;5085730;28;20384;-77
2023/12/29 10:53:32;;;;;;;46.67;35.17;;;;;;;29.35;16.13;95377.78;5068320;28;20043;-78
2023/12/29 10:56:00;;;;;;;50.05;35.55;;;;;;;29.54;16.00;95374.03;5084996;28;20076;-85
2023/12/29 10:58:29;;;;;;;47.63;37.67;;;;;;;30.07;15.32;95371.59;5084639;28;20035;-78
2023/12/29 11:00:57;;;;;;;48.85;37.38;;;;;;;30.86;14.95;95364.50;5086458;28;20080;-77
2023/12/29 11:03:24;;;;;;;50.30;38.90;;;;;;;31.80;14.18;95369.78;5085504;28;20035;-77
2023/12/29 11:05:49;;;;;;;49.35;39.75;;;;;;;32.57;13.82;95359.78;5086057;28;20073;-78
2023/12/29 11:08:17;;;;;;;48.20;37.88;;;;;;;33.11;13.30;95354.66;5085920;28;20024;-77
2023/12/29 11:10:43;;;;;;;44.70;37.28;;;;;;;33.51;12.69;95354.59;5085781;28;20024;-77
2023/12/29 11:13:16;;;;;;;47.72;37.10;;;;;;;33.75;12.80;95349.47;5086588;28;20055;-78
2023/12/29 11:15:45;;;;;;;47.55;38.13;;;;;;;33.94;12.80;95351.78;5083620;28;20047;-77
2023/12/29 11:18:15;;;;;;;47.88;38.72;;;;;;;34.18;12.44;95339.59;5086448;28;20753;-78
2023/12/29 11:20:42;;;;;;;47.35;38.33;;;;;;;34.63;11.83;95349.00;5085841;28;20035;-78